Time;durP1;ratioP1;P1;durP2;ratioP2;P2;SDS_P1;SDS_P2;PMS_P1;PMS_P2;Temp;Humidity;BMP_temperature;BMP_pressure;BME280_temperature;BME280_humidity;BME280_pressure;Samples;Min_cycle;Max_cycle;Signal;HPM_P1;HPM_P2
2023/09/18 00:01:02;;;;;;;7.65;3.60;;;20.80;1.00;;;;;;7367676;19;20362;-69
2023/09/18 00:03:32;;;;;;;4.22;3.40;;;20.80;1.00;;;;;;7374986;19;20016;-68
2023/09/18 00:06:02;;;;;;;4.53;3.25;;;20.70;1.00;;;;;;7375278;19;20813;-68
2023/09/18 00:08:34;;;;;;;3.55;3.00;;;20.70;1.00;;;;;;7376204;19;20018;-69
2023/09/18 00:11:07;;;;;;;9.20;3.88;;;20.60;1.00;;;;;;7367348;19;20354;-68
2023/09/18 00:13:37;;;;;;;4.05;3.13;;;20.50;1.00;;;;;;7375663;19;20011;-68
2023/09/18 00:16:07;;;;;;;4.00;3.10;;;20.50;1.00;;;;;;7375131;19;20658;-67
2023/09/18 00:18:37;;;;;;;5.90;3.40;;;20.50;1.00;;;;;;7376057;19;20010;-67
2023/09/18 00:21:07;;;;;;;5.72;3.83;;;20.50;1.00;;;;;;7367316;19;20035;-67
2023/09/18 00:23:37;;;;;;;6.95;4.32;;;20.50;1.00;;;;;;7375037;19;20091;-66
2023/09/18 00:26:10;;;;;;;4.75;3.78;;;20.40;1.00;;;;;;7375029;19;20073;-67
2023/09/18 00:28:40;;;;;;;3.85;3.33;;;20.40;1.00;;;;;;7373974;19;20034;-67
2023/09/18 00:31:10;;;;;;;4.45;3.22;;;20.40;1.00;;;;;;7366282;19;20014;-68
2023/09/18 00:33:40;;;;;;;3.80;3.38;;;20.30;1.00;;;;;;7373432;19;20030;-67
2023/09/18 00:36:10;;;;;;;4.40;3.78;;;20.30;1.00;;;;;;7373950;19;20023;-67
2023/09/18 00:38:40;;;;;;;4.88;3.67;;;20.30;1.00;;;;;;7374349;19;20445;-67
2023/09/18 00:41:13;;;;;;;3.85;3.33;;;20.30;1.00;;;;;;7361381;19;20037;-68
2023/09/18 00:43:42;;;;;;;4.22;3.38;;;20.30;1.00;;;;;;7374767;19;20396;-68
2023/09/18 00:46:12;;;;;;;5.05;3.03;;;20.30;1.00;;;;;;7372802;19;20023;-68
2023/09/18 00:48:43;;;;;;;3.80;3.08;;;20.30;1.00;;;;;;7374939;19;20018;-67
2023/09/18 00:51:13;;;;;;;4.78;3.58;;;20.40;1.00;;;;;;7366464;19;20010;-68
2023/09/18 00:53:48;;;;;;;5.32;3.85;;;20.40;1.00;;;;;;7375456;19;20029;-68
2023/09/18 00:56:22;;;;;;;3.90;3.50;;;20.40;1.00;;;;;;7372519;19;20046;-69
2023/09/18 00:58:54;;;;;;;6.57;3.92;;;20.40;1.00;;;;;;7374212;19;20006;-68
2023/09/18 01:01:24;;;;;;;6.57;3.58;;;20.40;1.00;;;;;;7365291;19;20035;-67
2023/09/18 01:03:55;;;;;;;4.88;3.67;;;20.50;1.00;;;;;;7374474;19;20565;-67
2023/09/18 01:06:30;;;;;;;7.63;3.60;;;20.60;1.00;;;;;;7372469;19;20043;-67
2023/09/18 01:09:00;;;;;;;4.18;3.53;;;20.70;1.00;;;;;;7374656;19;20011;-67
2023/09/18 01:11:42;;;;;;;8.95;4.13;;;20.70;1.00;;;;;;7365333;19;20082;-66
2023/09/18 01:14:17;;;;;;;7.65;3.85;;;20.80;1.00;;;;;;7372361;19;20010;-67
2023/09/18 01:16:54;;;;;;;5.18;3.45;;;20.80;1.00;;;;;;7368425;19;20030;-67
2023/09/18 01:19:45;;;;;;;7.07;3.60;;;20.90;1.00;;;;;;7370416;19;20014;-68
2023/09/18 01:22:16;;;;;;;5.40;3.80;;;20.90;1.00;;;;;;7370841;19;20057;-67
2023/09/18 01:24:51;;;;;;;4.45;3.22;;;21.00;1.00;;;;;;7372905;19;20015;-68
2023/09/18 01:27:21;;;;;;;5.35;3.35;;;21.00;1.00;;;;;;7372222;19;20007;-68
2023/09/18 01:29:53;;;;;;;4.93;3.70;;;21.00;1.00;;;;;;7363785;19;20023;-67
2023/09/18 01:32:27;;;;;;;6.00;3.95;;;21.10;1.00;;;;;;7371601;19;20015;-67
2023/09/18 01:35:00;;;;;;;5.93;4.22;;;21.10;1.00;;;;;;7372466;19;20581;-67
2023/09/18 01:37:32;;;;;;;5.38;4.28;;;21.20;1.00;;;;;;7372546;19;20014;-67
2023/09/18 01:40:07;;;;;;;6.60;4.72;;;21.20;1.00;;;;;;7364461;19;20126;-67
2023/09/18 01:42:41;;;;;;;6.10;4.30;;;21.20;1.00;;;;;;7371385;19;20434;-68
2023/09/18 01:45:12;;;;;;;6.05;4.30;;;21.10;1.00;;;;;;7371744;19;20006;-68
2023/09/18 01:47:42;;;;;;;5.97;4.28;;;21.00;1.00;;;;;;7372439;19;20010;-68
2023/09/18 01:50:13;;;;;;;5.57;4.03;;;21.00;1.00;;;;;;7365179;19;20014;-68
2023/09/18 01:52:43;;;;;;;10.05;4.20;;;20.90;1.00;;;;;;7371655;19;20010;-68
2023/09/18 01:55:15;;;;;;;9.32;4.70;;;20.90;1.00;;;;;;7371357;19;20018;-66
2023/09/18 01:57:45;;;;;;;5.53;3.80;;;20.90;1.00;;;;;;7371512;19;20059;-67
2023/09/18 02:00:18;;;;;;;7.07;4.07;;;21.10;1.00;;;;;;7364287;19;20010;-67
2023/09/18 02:02:48;;;;;;;8.50;4.25;;;21.20;1.00;;;;;;7370369;19;20010;-66
2023/09/18 02:05:38;;;;;;;8.02;4.03;;;21.30;1.00;;;;;;7372440;19;20015;-68
2023/09/18 02:08:08;;;;;;;10.10;3.55;;;21.50;1.00;;;;;;7370724;19;20011;-68
2023/09/18 02:10:41;;;;;;;5.82;3.33;;;21.60;1.00;;;;;;7363416;19;20022;-67
2023/09/18 02:13:10;;;;;;;5.25;3.63;;;21.70;1.00;;;;;;7369441;19;20085;-68
2023/09/18 02:15:40;;;;;;;5.65;3.42;;;21.70;1.00;;;;;;7369872;19;20070;-69
2023/09/18 02:18:10;;;;;;;5.95;3.17;;;21.70;1.00;;;;;;7375861;19;20017;-67
2023/09/18 02:20:47;;;;;;;7.30;3.00;;;21.70;1.00;;;;;;7390382;19;20082;-68
2023/09/18 02:23:18;;;;;;;4.60;3.17;;;21.60;1.00;;;;;;7390462;19;20078;-68
2023/09/18 02:25:58;;;;;;;5.50;3.30;;;21.60;1.00;;;;;;7390088;19;20017;-68
2023/09/18 02:28:28;;;;;;;4.25;2.85;;;21.60;1.00;;;;;;7389370;19;20085;-67
2023/09/18 02:30:58;;;;;;;7.88;3.38;;;21.50;1.00;;;;;;7390912;19;20022;-67
2023/09/18 02:33:28;;;;;;;7.70;2.67;;;21.40;1.00;;;;;;7390917;19;20078;-68
2023/09/18 02:35:58;;;;;;;6.13;2.63;;;21.20;1.00;;;;;;7391379;19;20010;-68
2023/09/18 02:38:30;;;;;;;6.68;2.88;;;21.10;1.00;;;;;;7390374;19;20470;-69
2023/09/18 02:41:02;;;;;;;9.77;3.00;;;21.10;1.00;;;;;;7390544;19;20015;-68
2023/09/18 02:43:32;;;;;;;6.45;2.88;;;20.90;1.00;;;;;;7391706;19;20042;-67
2023/09/18 02:46:03;;;;;;;8.57;3.10;;;20.80;1.00;;;;;;7391370;19;20090;-67
2023/09/18 02:48:32;;;;;;;7.32;3.20;;;20.70;1.00;;;;;;7390938;19;20083;-68
2023/09/18 02:51:02;;;;;;;7.68;3.03;;;20.60;1.00;;;;;;7390733;19;20018;-68
2023/09/18 02:53:32;;;;;;;8.20;3.65;;;20.60;1.00;;;;;;7391615;19;20089;-68
2023/09/18 02:56:06;;;;;;;5.63;2.90;;;20.60;1.00;;;;;;7391623;19;20339;-68
2023/09/18 02:58:36;;;;;;;17.45;5.22;;;20.60;1.00;;;;;;7391024;19;20355;-67
2023/09/18 03:01:06;;;;;;;11.73;3.97;;;20.40;1.00;;;;;;7390111;19;20018;-68
2023/09/18 03:03:36;;;;;;;12.60;4.32;;;20.40;1.00;;;;;;7389949;19;20018;-66
2023/09/18 03:06:07;;;;;;;14.48;4.13;;;20.40;1.00;;;;;;7390487;19;20045;-67
2023/09/18 03:08:38;;;;;;;9.50;3.47;;;20.20;1.00;;;;;;7390798;19;20027;-67
2023/09/18 03:11:16;;;;;;;7.10;3.40;;;20.20;1.00;;;;;;7389964;19;20086;-66
2023/09/18 03:13:48;;;;;;;6.80;3.25;;;20.30;1.00;;;;;;7389546;19;20367;-68
2023/09/18 03:16:18;;;;;;;8.63;3.78;;;20.30;1.00;;;;;;7389579;19;20010;-67
2023/09/18 03:18:48;;;;;;;11.15;3.53;;;20.30;1.00;;;;;;7391210;19;20018;-67
2023/09/18 03:21:18;;;;;;;10.82;3.47;;;20.20;1.00;;;;;;7390215;19;20091;-67
2023/09/18 03:23:48;;;;;;;9.32;3.10;;;20.20;1.00;;;;;;7391316;19;20010;-68
2023/09/18 03:26:20;;;;;;;9.43;3.15;;;20.10;1.00;;;;;;7389341;19;20017;-67
2023/09/18 03:28:50;;;;;;;9.82;3.70;;;19.90;1.00;;;;;;7390901;19;20113;-68
2023/09/18 03:31:20;;;;;;;9.32;2.85;;;20.00;1.00;;;;;;7386702;19;20022;-68
2023/09/18 03:33:50;;;;;;;9.90;3.47;;;19.90;1.00;;;;;;7391370;19;20082;-68
2023/09/18 03:36:23;;;;;;;12.25;3.53;;;19.80;1.00;;;;;;7389557;19;20086;-68
2023/09/18 03:38:53;;;;;;;10.68;3.28;;;19.80;1.00;;;;;;7390584;19;20073;-67
2023/09/18 03:41:26;;;;;;;7.40;3.65;;;19.80;1.00;;;;;;7389454;19;20027;-68
2023/09/18 03:43:56;;;;;;;7.15;3.60;;;19.90;1.00;;;;;;7391227;19;20011;-67
2023/09/18 03:46:26;;;;;;;9.52;4.03;;;19.90;4.50;;;;;;7388948;19;20350;-68
2023/09/18 03:48:58;;;;;;;11.00;3.90;;;19.90;3.20;;;;;;7390686;19;20056;-67
2023/09/18 03:51:27;;;;;;;7.97;3.42;;;20.00;4.90;;;;;;7389593;19;20031;-67
2023/09/18 03:53:57;;;;;;;9.00;3.47;;;20.00;4.00;;;;;;7390191;19;20390;-67
2023/09/18 03:56:30;;;;;;;7.03;3.65;;;20.10;1.00;;;;;;7389051;19;20112;-67
2023/09/18 03:59:01;;;;;;;12.25;3.78;;;20.20;1.00;;;;;;7390025;19;20011;-67
2023/09/18 04:01:31;;;;;;;10.93;3.58;;;20.20;1.00;;;;;;7389239;19;20010;-66
2023/09/18 04:04:02;;;;;;;13.88;3.78;;;20.30;1.00;;;;;;7389888;19;20018;-68
2023/09/18 04:06:40;;;;;;;10.10;3.50;;;20.30;1.00;;;;;;7389121;19;20537;-68
2023/09/18 04:09:10;;;;;;;7.68;3.22;;;20.40;1.00;;;;;;7389214;19;20010;-67
2023/09/18 04:11:43;;;;;;;11.98;3.60;;;20.40;1.00;;;;;;7389355;19;20364;-67
2023/09/18 04:14:13;;;;;;;7.40;3.15;;;20.30;1.00;;;;;;7388890;19;20019;-67
2023/09/18 04:16:43;;;;;;;10.60;3.20;;;20.30;1.00;;;;;;7388309;19;20035;-68
2023/09/18 04:19:13;;;;;;;11.43;3.15;;;20.10;1.00;;;;;;7388537;19;20010;-67
2023/09/18 04:21:43;;;;;;;8.60;3.13;;;19.90;4.00;;;;;;7389938;19;20397;-68
2023/09/18 04:24:13;;;;;;;10.30;3.42;;;19.90;7.40;;;;;;7388688;19;20169;-67
2023/09/18 04:26:46;;;;;;;11.15;3.55;;;19.80;8.10;;;;;;7388268;19;20319;-68
2023/09/18 04:29:16;;;;;;;9.55;3.50;;;19.70;14.40;;;;;;7388317;19;20013;-68
2023/09/18 04:31:46;;;;;;;6.75;3.00;;;19.70;13.50;;;;;;7388552;19;20014;-68
2023/09/18 04:34:17;;;;;;;6.40;2.97;;;19.70;15.60;;;;;;7388282;19;20011;-68
2023/09/18 04:36:46;;;;;;;8.98;3.42;;;19.60;21.40;;;;;;7387078;19;20088;-67
2023/09/18 04:39:16;;;;;;;10.77;3.58;;;19.60;25.50;;;;;;7387702;19;20031;-67
2023/09/18 04:41:49;;;;;;;7.50;3.60;;;19.60;29.50;;;;;;7388861;19;20036;-67
2023/09/18 04:44:19;;;;;;;7.97;3.20;;;19.50;36.60;;;;;;7394683;19;20028;-68
2023/09/18 04:46:49;;;;;;;14.02;3.88;;;19.40;44.70;;;;;;7392505;19;20014;-67
2023/09/18 04:49:19;;;;;;;12.30;4.22;;;19.40;47.90;;;;;;7391523;19;20082;-68
2023/09/18 04:51:48;;;;;;;11.10;4.47;;;19.30;53.70;;;;;;7393745;19;20010;-67
2023/09/18 04:54:19;;;;;;;14.05;4.57;;;19.20;65.50;;;;;;7393048;19;20065;-68
2023/09/18 04:56:51;;;;;;;13.25;4.20;;;19.10;75.20;;;;;;7393300;19;20350;-68
2023/09/18 04:59:22;;;;;;;10.63;4.38;;;19.10;74.20;;;;;;7393563;19;20040;-68
2023/09/18 05:01:52;;;;;;;12.40;4.70;;;19.10;75.90;;;;;;7394560;19;20035;-66
2023/09/18 05:04:22;;;;;;;8.88;4.18;;;19.10;70.20;;;;;;7393734;19;20010;-67
2023/09/18 05:06:52;;;;;;;6.72;3.88;;;19.10;74.80;;;;;;7393208;19;20073;-67
2023/09/18 05:09:22;;;;;;;11.38;4.38;;;19.10;77.60;;;;;;7393728;19;20078;-67
2023/09/18 05:11:55;;;;;;;9.30;4.38;;;19.30;87.80;;;;;;7393715;19;20007;-67
2023/09/18 05:14:25;;;;;;;13.35;4.88;;;19.30;86.70;;;;;;7393256;19;20074;-68
2023/09/18 05:16:54;;;;;;;11.98;4.40;;;19.40;76.30;;;;;;7393325;19;20010;-67
2023/09/18 05:19:25;;;;;;;7.70;4.05;;;19.40;66.80;;;;;;7392535;19;20015;-67
2023/09/18 05:21:54;;;;;;;11.50;4.38;;;19.50;68.40;;;;;;7392314;19;20473;-67
2023/09/18 05:24:27;;;;;;;8.60;3.97;;;19.30;60.60;;;;;;7392534;19;20108;-68
2023/09/18 05:26:59;;;;;;;10.95;3.83;;;19.40;59.70;;;;;;7391923;19;20011;-68
2023/09/18 05:29:29;;;;;;;12.88;3.95;;;19.30;55.10;;;;;;7392275;19;20018;-68
2023/09/18 05:31:59;;;;;;;8.88;4.03;;;19.40;53.50;;;;;;7390744;19;20021;-66
2023/09/18 05:34:29;;;;;;;7.25;3.63;;;19.40;43.80;;;;;;7392349;19;20423;-67
2023/09/18 05:36:59;;;;;;;14.07;4.20;;;19.40;47.20;;;;;;7391754;19;20018;-67
2023/09/18 05:39:29;;;;;;;10.07;4.45;;;19.50;42.30;;;;;;7391507;19;20130;-67
2023/09/18 05:42:01;;;;;;;12.27;4.82;;;19.50;36.70;;;;;;7390784;19;20047;-67
2023/09/18 05:44:31;;;;;;;9.32;4.55;;;19.60;31.20;;;;;;7391921;19;20494;-68
2023/09/18 05:47:03;;;;;;;10.23;4.22;;;19.60;39.20;;;;;;7391954;19;20031;-68
2023/09/18 05:49:35;;;;;;;7.85;3.95;;;19.60;34.50;;;;;;7392340;19;20046;-68
2023/09/18 05:52:05;;;;;;;8.80;4.13;;;19.50;32.90;;;;;;7391968;19;20088;-68
2023/09/18 05:54:36;;;;;;;11.30;4.43;;;19.60;32.30;;;;;;7391268;19;20014;-69
2023/09/18 05:57:09;;;;;;;10.68;4.28;;;19.60;26.60;;;;;;7391178;19;20094;-67
2023/09/18 05:59:40;;;;;;;5.68;3.28;;;19.70;18.90;;;;;;7391810;19;20059;-68
2023/09/18 06:02:10;;;;;;;7.70;3.67;;;19.80;16.80;;;;;;7391687;19;20018;-68
2023/09/18 06:04:40;;;;;;;11.23;4.28;;;19.90;10.40;;;;;;7392959;19;20015;-68
2023/09/18 06:07:10;;;;;;;8.95;4.53;;;19.90;6.40;;;;;;7391151;19;20024;-67
2023/09/18 06:09:40;;;;;;;11.02;3.83;;;20.00;12.50;;;;;;7393112;19;20018;-68
2023/09/18 06:12:14;;;;;;;16.50;4.65;;;20.00;6.80;;;;;;7390797;19;20478;-68
2023/09/18 06:14:44;;;;;;;11.80;3.93;;;20.00;8.40;;;;;;7392460;19;20006;-67
2023/09/18 06:17:14;;;;;;;9.90;4.43;;;20.00;10.40;;;;;;7390346;19;20010;-69
2023/09/18 06:19:45;;;;;;;7.57;3.95;;;20.10;11.70;;;;;;7391892;19;20021;-67
2023/09/18 06:22:15;;;;;;;11.85;4.03;;;20.00;8.90;;;;;;7389412;19;20027;-68
2023/09/18 06:24:45;;;;;;;8.93;3.40;;;20.00;10.00;;;;;;7391426;19;20006;-68
2023/09/18 06:27:18;;;;;;;7.50;3.22;;;20.00;6.50;;;;;;7389755;19;20070;-68
2023/09/18 06:29:48;;;;;;;9.27;3.78;;;20.00;9.30;;;;;;7391832;19;20011;-68
2023/09/18 06:32:18;;;;;;;13.38;3.67;;;19.90;7.10;;;;;;7389922;19;20352;-68
2023/09/18 06:34:48;;;;;;;9.32;3.28;;;20.00;4.00;;;;;;7392120;19;20033;-68
2023/09/18 06:37:18;;;;;;;8.00;3.15;;;19.90;1.00;;;;;;7389793;19;20052;-68
2023/09/18 06:39:48;;;;;;;11.43;3.30;;;20.00;5.60;;;;;;7392338;19;20035;-68
2023/09/18 06:42:21;;;;;;;10.93;3.83;;;20.00;3.50;;;;;;7390418;19;20025;-67
2023/09/18 06:44:51;;;;;;;11.18;3.70;;;20.00;5.90;;;;;;7391444;19;20035;-67
2023/09/18 06:47:21;;;;;;;11.02;3.15;;;19.90;1.00;;;;;;7389872;19;20481;-67
2023/09/18 06:49:51;;;;;;;9.27;3.08;;;20.00;5.60;;;;;;7391502;19;20006;-67
2023/09/18 06:52:21;;;;;;;10.98;4.07;;;20.00;4.00;;;;;;7389771;19;20006;-68
2023/09/18 06:54:51;;;;;;;11.20;3.60;;;20.10;1.00;;;;;;7391381;19;20014;-67
2023/09/18 06:57:24;;;;;;;6.97;3.33;;;20.20;1.00;;;;;;7389228;19;20014;-67
2023/09/18 06:59:54;;;;;;;8.02;3.40;;;20.20;1.00;;;;;;7390035;19;20476;-68
2023/09/18 07:02:25;;;;;;;11.48;3.70;;;20.20;1.00;;;;;;7390077;19;20015;-67
2023/09/18 07:04:55;;;;;;;7.93;3.28;;;20.30;2.00;;;;;;7389592;19;20022;-69
2023/09/18 07:07:26;;;;;;;8.75;3.50;;;20.40;1.00;;;;;;7389439;19;20006;-68
2023/09/18 07:09:56;;;;;;;6.63;3.25;;;20.40;1.00;;;;;;7389574;19;20086;-67
2023/09/18 07:12:32;;;;;;;6.53;3.22;;;20.40;1.00;;;;;;7388024;19;20150;-68
2023/09/18 07:15:05;;;;;;;7.28;3.10;;;20.40;1.00;;;;;;7387876;19;20050;-68
2023/09/18 07:17:36;;;;;;;8.27;3.63;;;20.40;1.00;;;;;;7387885;19;20473;-68
2023/09/18 07:20:10;;;;;;;10.82;3.08;;;20.40;1.00;;;;;;7389610;19;20088;-67
2023/09/18 07:22:50;;;;;;;11.95;3.95;;;20.50;1.00;;;;;;7388417;19;20011;-68
2023/09/18 07:25:20;;;;;;;8.20;3.58;;;20.40;1.00;;;;;;7389787;19;20014;-67
2023/09/18 07:27:52;;;;;;;7.30;3.20;;;20.40;1.00;;;;;;7389852;19;20331;-67
2023/09/18 07:30:26;;;;;;;7.57;2.90;;;20.40;1.00;;;;;;7389480;19;20332;-68
2023/09/18 07:32:58;;;;;;;5.88;2.60;;;20.50;1.00;;;;;;7387892;19;20014;-67
2023/09/18 07:35:29;;;;;;;8.60;2.40;;;20.50;1.00;;;;;;7390017;19;20340;-67
2023/09/18 07:37:59;;;;;;;6.13;2.42;;;20.50;1.00;;;;;;7388178;19;20007;-69
2023/09/18 07:40:28;;;;;;;7.63;2.40;;;20.60;1.00;;;;;;7389094;19;20070;-68
2023/09/18 07:43:01;;;;;;;7.40;1.70;;;20.70;1.00;;;;;;7388101;19;20357;-68
2023/09/18 07:45:31;;;;;;;5.38;1.95;;;20.60;1.00;;;;;;7387660;19;20082;-66
2023/09/18 07:48:01;;;;;;;5.93;1.80;;;20.70;1.00;;;;;;7387129;19;20013;-67
2023/09/18 07:50:33;;;;;;;8.00;2.47;;;20.80;1.00;;;;;;7388679;19;20043;-67
2023/09/18 07:53:03;;;;;;;6.43;1.90;;;20.80;1.00;;;;;;7388528;19;19998;-68
2023/09/18 07:55:33;;;;;;;3.75;2.15;;;20.90;1.00;;;;;;7388045;19;20014;-67
2023/09/18 07:58:06;;;;;;;9.10;1.70;;;21.00;1.00;;;;;;7388548;19;20029;-66
2023/09/18 08:00:36;;;;;;;4.03;1.80;;;21.00;1.00;;;;;;7389333;19;20503;-68
2023/09/18 08:03:06;;;;;;;6.00;1.42;;;21.10;1.00;;;;;;7388322;19;20066;-68
2023/09/18 08:05:36;;;;;;;6.03;1.95;;;21.10;1.00;;;;;;7389190;19;20039;-68
2023/09/18 08:08:07;;;;;;;6.93;1.70;;;21.20;1.00;;;;;;7387925;19;20011;-67
2023/09/18 08:10:41;;;;;;;6.57;1.60;;;21.30;1.00;;;;;;7389896;19;20356;-68
2023/09/18 08:13:13;;;;;;;6.07;1.90;;;21.30;1.00;;;;;;7388350;19;20010;-67
2023/09/18 08:15:43;;;;;;;5.93;1.95;;;21.30;1.00;;;;;;7389788;19;20028;-68
2023/09/18 08:18:13;;;;;;;4.18;1.13;;;21.40;1.00;;;;;;7394928;19;20010;-67
2023/09/18 08:20:44;;;;;;;5.18;1.90;;;21.50;1.00;;;;;;7395895;19;20015;-67
2023/09/18 08:23:15;;;;;;;3.25;1.63;;;21.70;1.00;;;;;;7395164;19;20502;-68
2023/09/18 08:25:47;;;;;;;3.30;1.58;;;21.70;1.00;;;;;;7396286;19;20019;-68
2023/09/18 08:28:19;;;;;;;4.75;1.60;;;21.70;1.00;;;;;;7394208;19;20099;-67
2023/09/18 08:30:49;;;;;;;6.53;1.63;;;21.70;1.00;;;;;;7395922;19;20021;-67
2023/09/18 08:33:20;;;;;;;4.80;1.50;;;21.80;1.00;;;;;;7393715;19;20014;-67
2023/09/18 08:35:50;;;;;;;5.70;2.80;;;21.60;1.00;;;;;;7393724;19;20022;-68
2023/09/18 08:38:20;;;;;;;4.97;1.60;;;21.50;1.00;;;;;;7393504;19;20035;-68
2023/09/18 08:40:50;;;;;;;2.65;1.02;;;21.50;1.00;;;;;;7395405;19;20483;-68
2023/09/18 08:43:26;;;;;;;2.97;1.27;;;21.50;1.00;;;;;;7394335;19;20006;-66
2023/09/18 08:46:01;;;;;;;5.03;1.30;;;21.30;1.00;;;;;;7394504;19;20040;-66
2023/09/18 08:48:34;;;;;;;3.92;1.65;;;21.40;1.00;;;;;;7393768;19;20494;-67
2023/09/18 08:51:06;;;;;;;2.20;1.00;;;21.30;1.00;;;;;;7393538;19;20014;-67
2023/09/18 08:53:38;;;;;;;4.20;0.90;;;21.40;1.00;;;;;;7394059;19;20010;-68
2023/09/18 08:56:12;;;;;;;1.88;0.90;;;21.40;1.00;;;;;;7393464;19;20015;-67
2023/09/18 08:58:45;;;;;;;;;;;21.40;1.00;;;;;;7394761;19;20366;-68
2023/09/18 09:01:15;;;;;;;3.17;0.93;;;21.30;1.00;;;;;;7392572;19;19929;-68
2023/09/18 09:03:46;;;;;;;3.60;1.10;;;21.00;1.00;;;;;;7394524;19;20018;-67
2023/09/18 09:06:16;;;;;;;2.38;0.98;;;20.90;1.00;;;;;;7393732;19;20010;-67
2023/09/18 09:08:46;;;;;;;4.90;1.00;;;20.70;1.00;;;;;;7394531;19;20015;-66
2023/09/18 09:11:16;;;;;;;3.90;0.95;;;20.50;1.00;;;;;;7392891;19;20018;-68
2023/09/18 09:13:49;;;;;;;3.60;1.10;;;20.20;1.00;;;;;;7393607;19;20014;-68
2023/09/18 09:16:20;;;;;;;2.42;0.95;;;20.10;2.70;;;;;;7391141;19;20014;-69
2023/09/18 09:18:53;;;;;;;6.00;1.30;;;20.00;8.60;;;;;;7394438;19;20022;-67
2023/09/18 09:21:23;;;;;;;5.88;1.52;;;20.00;16.90;;;;;;7393247;19;20375;-69
2023/09/18 09:23:56;;;;;;;3.05;1.20;;;19.90;30.90;;;;;;7393052;19;20010;-68
2023/09/18 09:26:26;;;;;;;3.75;1.50;;;19.70;31.10;;;;;;7391764;19;20006;-68
2023/09/18 09:28:58;;;;;;;4.25;1.40;;;19.60;35.40;;;;;;7391664;19;20369;-67
2023/09/18 09:31:30;;;;;;;5.10;1.70;;;19.50;39.80;;;;;;7392811;19;20014;-67
2023/09/18 09:34:05;;;;;;;9.45;1.40;;;19.40;56.30;;;;;;7393249;19;20074;-67
2023/09/18 09:36:35;;;;;;;3.53;1.48;;;19.40;53.60;;;;;;7392398;19;20014;-68
2023/09/18 09:39:07;;;;;;;3.78;1.52;;;19.40;68.60;;;;;;7392904;19;20369;-68
2023/09/18 09:41:37;;;;;;;5.22;1.88;;;19.30;55.30;;;;;;7392211;19;20031;-67
2023/09/18 09:44:11;;;;;;;3.25;1.63;;;19.30;90.00;;;;;;7392468;19;20002;-68
2023/09/18 09:46:48;;;;;;;3.78;1.33;;;19.20;94.00;;;;;;7392831;19;20038;-69
2023/09/18 09:49:19;;;;;;;4.22;1.60;;;19.20;86.80;;;;;;7392291;19;20006;-68
2023/09/18 09:51:49;;;;;;;3.72;1.73;;;19.30;88.80;;;;;;7392742;19;20006;-67
2023/09/18 09:54:40;;;;;;;4.30;1.67;;;19.40;89.90;;;;;;7392089;19;20031;-67
2023/09/18 09:57:10;;;;;;;5.47;1.52;;;19.40;84.10;;;;;;7391692;19;20010;-67
2023/09/18 09:59:44;;;;;;;4.90;2.00;;;19.40;70.10;;;;;;7393424;19;20031;-67
2023/09/18 10:02:22;;;;;;;4.63;1.80;;;19.50;79.10;;;;;;7385415;19;20077;-68
2023/09/18 10:04:53;;;;;;;8.88;3.63;;;19.40;77.30;;;;;;7392455;19;20081;-67
2023/09/18 10:07:24;;;;;;;3.72;1.73;;;19.60;82.50;;;;;;7386711;19;20014;-67
2023/09/18 10:09:54;;;;;;;3.22;1.33;;;19.60;66.90;;;;;;7390604;19;20011;-67
2023/09/18 10:12:25;;;;;;;5.35;2.15;;;19.70;54.80;;;;;;7391061;19;20023;-67
2023/09/18 10:14:59;;;;;;;4.40;1.75;;;19.70;56.00;;;;;;7392570;19;20014;-69
2023/09/18 10:17:35;;;;;;;4.53;2.08;;;19.60;50.20;;;;;;7390331;19;20015;-68
2023/09/18 10:20:16;;;;;;;3.88;1.58;;;19.60;52.90;;;;;;7391957;19;20011;-68
2023/09/18 10:22:49;;;;;;;5.15;1.90;;;19.70;54.00;;;;;;7390793;19;20768;-68
2023/09/18 10:25:24;;;;;;;4.22;2.10;;;19.60;53.80;;;;;;7390246;19;20035;-67
2023/09/18 10:28:01;;;;;;;3.72;1.50;;;19.70;52.60;;;;;;7389045;19;20038;-69
2023/09/18 10:30:37;;;;;;;3.92;1.75;;;19.80;62.40;;;;;;7391090;19;20018;-69
2023/09/18 10:33:08;;;;;;;4.28;2.10;;;19.60;42.50;;;;;;7389450;19;20003;-67
2023/09/18 10:35:40;;;;;;;4.50;1.70;;;19.60;49.30;;;;;;7390588;19;20014;-69
2023/09/18 10:38:10;;;;;;;4.47;1.88;;;19.60;60.10;;;;;;7389588;19;20467;-67
2023/09/18 10:40:42;;;;;;;6.22;2.40;;;19.60;64.00;;;;;;7390287;19;20011;-67
2023/09/18 10:43:16;;;;;;;3.53;2.00;;;19.60;74.60;;;;;;7389915;19;20023;-66
2023/09/18 10:45:51;;;;;;;3.92;2.17;;;19.50;69.00;;;;;;7390953;19;20082;-67
2023/09/18 10:48:22;;;;;;;4.53;2.05;;;19.50;70.90;;;;;;7389511;19;20014;-68
2023/09/18 10:50:53;;;;;;;4.53;2.20;;;19.50;74.60;;;;;;7390568;19;20021;-67
2023/09/18 10:53:23;;;;;;;3.97;2.08;;;19.60;75.00;;;;;;7389327;19;20010;-69
2023/09/18 10:55:54;;;;;;;5.07;2.63;;;19.60;66.40;;;;;;7385973;19;20574;-68
2023/09/18 10:58:28;;;;;;;6.57;2.50;;;19.70;63.60;;;;;;7388656;19;20019;-68
2023/09/18 11:01:02;;;;;;;9.20;3.90;;;19.80;60.00;;;;;;7389158;19;20092;-68
2023/09/18 11:03:35;;;;;;;4.93;3.20;;;19.60;51.70;;;;;;7389421;19;20775;-67
2023/09/18 11:06:09;;;;;;;4.60;2.70;;;19.60;53.70;;;;;;7389111;19;20090;-68
2023/09/18 11:08:46;;;;;;;5.78;2.50;;;19.70;53.80;;;;;;7388868;19;20022;-67
2023/09/18 11:11:20;;;;;;;5.40;2.33;;;19.60;53.50;;;;;;7388220;19;20082;-67
2023/09/18 11:13:54;;;;;;;5.63;2.47;;;19.60;52.30;;;;;;7390053;19;20026;-68
2023/09/18 11:16:40;;;;;;;6.28;2.42;;;19.60;54.50;;;;;;7388893;19;20077;-67
2023/09/18 11:19:13;;;;;;;3.95;2.28;;;19.60;50.70;;;;;;7390708;19;20010;-67
2023/09/18 11:21:45;;;;;;;9.18;5.95;;;19.60;51.00;;;;;;7389901;19;20011;-66
2023/09/18 11:24:22;;;;;;;3.88;1.80;;;19.50;56.30;;;;;;7389794;19;20035;-67
2023/09/18 11:26:54;;;;;;;3.47;2.13;;;19.50;56.00;;;;;;7389770;19;20014;-68
2023/09/18 11:29:26;;;;;;;4.90;2.35;;;19.50;47.30;;;;;;7389029;19;20081;-68
2023/09/18 11:32:01;;;;;;;5.22;2.00;;;19.60;49.60;;;;;;7386664;19;20011;-67
2023/09/18 11:34:35;;;;;;;5.70;1.92;;;19.80;42.20;;;;;;7387272;19;20031;-69
2023/09/18 11:37:22;;;;;;;4.15;1.92;;;19.80;43.30;;;;;;7388670;19;20015;-67
2023/09/18 11:39:52;;;;;;;4.82;1.95;;;19.80;28.90;;;;;;7390181;19;20077;-67
2023/09/18 11:42:26;;;;;;;5.90;1.95;;;19.90;41.00;;;;;;7387706;19;20043;-67
2023/09/18 11:44:58;;;;;;;5.13;1.60;;;20.10;42.70;;;;;;7388479;19;20078;-67
2023/09/18 11:47:32;;;;;;;4.35;2.13;;;20.00;26.30;;;;;;7387138;19;20024;-68
2023/09/18 11:50:04;;;;;;;;;;;20.00;22.60;;;;;;7389164;19;20014;-67
2023/09/18 11:52:37;;;;;;;5.30;1.83;;;20.10;25.60;;;;;;7392943;19;22300;-67
2023/09/18 11:55:09;;;;;;;4.43;1.40;;;20.10;15.80;;;;;;7393479;19;20449;-66
2023/09/18 11:57:42;;;;;;;4.10;1.73;;;20.30;18.00;;;;;;7393977;19;20073;-67
2023/09/18 12:00:23;;;;;;;1.88;1.40;;;20.40;9.70;;;;;;7394700;19;20074;-67
2023/09/18 12:02:58;;;;;;;3.85;1.38;;;20.50;6.00;;;;;;7392862;19;20012;-67
2023/09/18 12:05:28;;;;;;;3.63;1.42;;;20.50;3.40;;;;;;7394280;19;20039;-67
2023/09/18 12:07:58;;;;;;;3.17;1.50;;;20.60;6.00;;;;;;7394047;19;20014;-68
2023/09/18 12:10:31;;;;;;;2.97;1.50;;;20.60;1.00;;;;;;7393478;19;20014;-67
2023/09/18 12:13:03;;;;;;;2.10;1.25;;;20.80;1.00;;;;;;7394401;19;20084;-67
2023/09/18 12:15:39;;;;;;;3.55;1.40;;;20.80;1.00;;;;;;7394879;19;20010;-67
2023/09/18 12:18:17;;;;;;;12.00;8.15;;;20.90;1.00;;;;;;7394102;19;20014;-70
2023/09/18 12:20:49;;;;;;;2.25;1.30;;;20.90;1.00;;;;;;7394207;19;20050;-67
2023/09/18 12:23:20;;;;;;;3.67;1.10;;;20.80;1.00;;;;;;7394380;19;20016;-67
2023/09/18 12:25:53;;;;;;;2.75;1.20;;;20.70;1.00;;;;;;7396125;19;20438;-67
2023/09/18 12:28:29;;;;;;;3.58;1.33;;;20.70;1.00;;;;;;7394109;19;20518;-67
2023/09/18 12:31:04;;;;;;;2.67;1.40;;;20.70;1.00;;;;;;7394723;19;20035;-67
2023/09/18 12:33:40;;;;;;;2.63;1.63;;;20.40;1.00;;;;;;7393426;19;20015;-68
2023/09/18 12:36:11;;;;;;;6.28;2.33;;;20.30;1.00;;;;;;7395221;19;20470;-68
2023/09/18 12:38:41;;;;;;;8.15;3.50;;;20.50;1.00;;;;;;7393628;19;20010;-69
2023/09/18 12:41:14;;;;;;;3.72;1.75;;;20.50;1.00;;;;;;7392333;19;20027;-68
2023/09/18 12:43:45;;;;;;;3.33;1.75;;;20.40;1.00;;;;;;7393957;19;20014;-69
2023/09/18 12:46:15;;;;;;;4.13;1.30;;;20.40;1.00;;;;;;7394500;19;20003;-67
2023/09/18 12:48:48;;;;;;;3.38;1.40;;;20.60;1.00;;;;;;7393848;19;20025;-67
2023/09/18 12:51:22;;;;;;;5.15;1.58;;;20.70;1.00;;;;;;7390740;19;20477;-68
2023/09/18 12:54:06;;;;;;;;;;;20.70;1.00;;;;;;7394561;19;20010;-68
2023/09/18 12:56:43;;;;;;;5.83;1.80;;;20.90;1.00;;;;;;7390908;19;19998;-67
2023/09/18 12:59:14;;;;;;;3.25;1.38;;;21.10;1.00;;;;;;7393651;19;20475;-68
2023/09/18 13:01:50;;;;;;;3.00;1.42;;;21.50;1.00;;;;;;7388421;19;20017;-68
2023/09/18 13:04:23;;;;;;;2.22;1.40;;;21.40;1.00;;;;;;7387386;19;20416;-68
2023/09/18 13:07:05;;;;;;;3.75;1.50;;;21.40;1.00;;;;;;7386020;19;20041;-67
2023/09/18 13:09:37;;;;;;;2.72;1.38;;;21.50;1.00;;;;;;7387046;19;20033;-68
2023/09/18 13:12:08;;;;;;;3.33;1.15;;;21.90;1.00;;;;;;7388220;19;20315;-67
2023/09/18 13:15:00;;;;;;;2.58;1.35;;;21.80;1.00;;;;;;7388101;19;20133;-66
2023/09/18 13:17:30;;;;;;;3.65;1.83;;;21.70;1.00;;;;;;7388052;19;20094;-68